Terminal Aerodrome Forecast
Issued by NWS

Home | Current Version | Previous Version | Graphics & Text | Print | Product List | Glossary On
Versions: 1 2 3 4 5 6 7 8 9 10 11 12 13 14 15 16 17 18 19 20 21 22 23 24 25 26 27
000
FTUS43 KGRB 290500
TAFRHI
TAF
KRHI 290532Z 2906/3006 27003KT 6SM BR SCT050
     FM290900 33004KT 5SM BR VCSH SCT006 OVC015
      TEMPO 2912/2916 2SM -SHRA BR BKN006
     FM291600 01008G15KT 5SM BR SCT008 OVC010
      TEMPO 2916/2918 3SM -SHRA BR OVC008
     FM292200 02007KT P6SM BKN016=

USA.gov is the U.S. government's official web portal to all federal, state and local government web resources and services.